Time;durP1;ratioP1;P1;durP2;ratioP2;P2;SDS_P1;SDS_P2;PMS_P1;PMS_P2;Temp;Humidity;BMP_temperature;BMP_pressure;BME280_temperature;BME280_humidity;BME280_pressure;Samples;Min_cycle;Max_cycle;Signal;HPM_P1;HPM_P2
2022/10/10 00:01:34;;;;;;;34.65;28.33;;;;;;;15.01;100.00;100130.09;5075811;28;20031;-76
2022/10/10 00:04:00;;;;;;;34.30;27.00;;;;;;;15.06;100.00;100132.25;5071457;28;20488;-76
2022/10/10 00:06:27;;;;;;;36.03;28.30;;;;;;;15.07;100.00;100134.78;5071189;28;20123;-75
2022/10/10 00:08:53;;;;;;;33.67;27.65;;;;;;;15.08;100.00;100141.72;5071147;28;20029;-76
2022/10/10 00:11:22;;;;;;;30.45;26.48;;;;;;;15.11;100.00;100129.97;5070904;28;20530;-75
2022/10/10 00:13:48;;;;;;;36.15;28.30;;;;;;;15.15;100.00;100140.13;5071385;28;20054;-75
2022/10/10 00:16:14;;;;;;;33.08;27.10;;;;;;;15.22;100.00;100142.13;5070854;28;20476;-74
2022/10/10 00:18:40;;;;;;;34.63;26.88;;;;;;;15.24;100.00;100142.81;5071373;28;20115;-76
2022/10/10 00:21:07;;;;;;;33.50;26.80;;;;;;;15.25;100.00;100141.84;5073747;28;20039;-75
2022/10/10 00:23:33;;;;;;;30.73;26.13;;;;;;;15.22;100.00;100142.13;5070118;28;20037;-73
2022/10/10 00:25:58;;;;;;;34.20;27.27;;;;;;;15.19;100.00;100137.16;5068616;28;20029;-76
2022/10/10 00:28:24;;;;;;;32.63;27.02;;;;;;;15.27;100.00;100139.84;5066249;28;20067;-75
2022/10/10 00:30:49;;;;;;;34.17;27.40;;;;;;;15.29;100.00;100132.53;5071624;28;20032;-75
2022/10/10 00:33:15;;;;;;;34.13;27.02;;;;;;;15.24;100.00;100141.00;5071476;28;20093;-74
2022/10/10 00:35:40;;;;;;;30.73;27.20;;;;;;;15.27;100.00;100134.50;5070246;28;20133;-75
2022/10/10 00:38:06;;;;;;;32.88;27.85;;;;;;;15.28;100.00;100137.03;5071686;28;20537;-74
2022/10/10 00:40:32;;;;;;;35.58;29.60;;;;;;;15.30;100.00;100129.72;5075191;28;20421;-75
2022/10/10 00:42:57;;;;;;;37.08;29.08;;;;;;;15.34;100.00;100135.56;5071096;28;20108;-75
2022/10/10 00:45:32;;;;;;;37.53;29.65;;;;;;;15.32;100.00;100121.56;5071029;28;20024;-74
2022/10/10 00:48:03;;;;;;;34.95;28.48;;;;;;;15.18;100.00;100130.16;5070420;28;20120;-74
2022/10/10 00:50:32;;;;;;;36.63;28.50;;;;;;;15.12;100.00;100124.50;5070380;28;20029;-77
2022/10/10 00:52:58;;;;;;;33.35;28.50;;;;;;;15.07;100.00;100121.47;5070419;28;20439;-75
2022/10/10 00:55:24;;;;;;;33.65;28.95;;;;;;;15.10;100.00;100118.50;5069291;28;20361;-78
2022/10/10 00:57:50;;;;;;;39.55;29.30;;;;;;;15.14;100.00;100113.69;5069790;28;20035;-73
2022/10/10 01:00:16;;;;;;;41.13;30.55;;;;;;;15.16;100.00;100117.84;5069858;28;20196;-75
2022/10/10 01:02:41;;;;;;;35.47;29.63;;;;;;;15.23;100.00;100118.06;5068808;28;20028;-75
2022/10/10 01:05:07;;;;;;;36.33;28.42;;;;;;;15.26;100.00;100112.41;5070565;28;20064;-74
2022/10/10 01:07:33;;;;;;;40.85;30.27;;;;;;;15.31;100.00;100114.63;5069236;28;20454;-74
2022/10/10 01:10:06;;;;;;;37.58;29.70;;;;;;;15.29;100.00;100116.59;5070459;28;20108;-78
2022/10/10 01:12:59;;;;;;;33.50;27.35;;;;;;;15.23;100.00;100111.91;5069964;28;20063;-74
2022/10/10 01:15:34;;;;;;;32.45;27.80;;;;;;;15.18;100.00;100112.38;5067336;28;20064;-77
2022/10/10 01:18:07;;;;;;;33.10;28.15;;;;;;;15.16;100.00;100117.84;5071265;28;20024;-77
2022/10/10 01:20:35;;;;;;;36.33;28.05;;;;;;;15.21;100.00;100114.72;5068832;28;20486;-74
2022/10/10 01:23:37;;;;;;;35.88;28.58;;;;;;;15.23;100.00;100111.91;5070475;28;20047;-75
2022/10/10 01:26:24;;;;;;;36.50;27.33;;;;;;;15.23;100.00;100117.22;5068020;28;20054;-75
2022/10/10 01:28:57;;;;;;;32.05;28.05;;;;;;;15.18;100.00;100115.06;5070074;28;20036;-76
2022/10/10 01:31:24;;;;;;;33.65;27.98;;;;;;;15.22;100.00;100107.56;5066185;28;20063;-74
2022/10/10 01:33:59;;;;;;;31.85;27.10;;;;;;;15.25;100.00;100104.63;5070274;28;20501;-74
2022/10/10 01:36:54;;;;;;;37.92;27.10;;;;;;;15.14;100.00;100103.88;5070360;28;20028;-77
2022/10/10 01:39:32;;;;;;;32.95;27.60;;;;;;;15.14;100.00;100100.38;5069891;28;20107;-75
2022/10/10 01:42:07;;;;;;;30.95;26.13;;;;;;;15.09;100.00;100100.88;5067326;28;20043;-76
2022/10/10 01:44:33;;;;;;;36.08;27.42;;;;;;;15.08;100.00;100096.53;5070203;28;20384;-76
2022/10/10 01:46:58;;;;;;;32.78;26.35;;;;;;;15.06;100.00;100090.56;5070805;28;20039;-76
2022/10/10 01:49:28;;;;;;;34.83;26.15;;;;;;;15.03;100.00;100090.03;5069350;28;20043;-76
2022/10/10 01:52:25;;;;;;;28.65;24.77;;;;;;;15.03;100.00;100096.19;5067209;28;20032;-76
2022/10/10 01:55:21;;;;;;;30.50;24.77;;;;;;;15.00;100.00;100091.19;5073046;28;20062;-76
2022/10/10 01:58:03;;;;;;;27.20;24.02;;;;;;;14.97;100.00;100088.84;5073429;28;20032;-74
2022/10/10 02:00:34;;;;;;;27.20;24.23;;;;;;;14.98;100.00;100082.53;5071197;28;20488;-74
2022/10/10 02:03:06;;;;;;;30.83;25.23;;;;;;;14.96;100.00;100089.03;5074682;28;20028;-75
2022/10/10 02:05:37;;;;;;;29.75;24.80;;;;;;;14.95;100.00;100088.19;5074066;28;20036;-75
2022/10/10 02:08:07;;;;;;;30.73;25.38;;;;;;;14.96;100.00;100079.19;5074636;28;20127;-75
2022/10/10 02:10:45;;;;;;;30.60;25.13;;;;;;;14.95;100.00;100074.06;5074732;28;20035;-74
2022/10/10 02:13:12;;;;;;;29.27;24.48;;;;;;;14.95;100.00;100082.88;5073142;28;20036;-74
2022/10/10 02:15:46;;;;;;;31.50;25.88;;;;;;;14.94;100.00;100073.22;5077211;28;20036;-75
2022/10/10 02:18:15;;;;;;;33.75;26.10;;;;;;;14.93;100.00;100071.56;5073583;28;20415;-74
2022/10/10 02:20:42;;;;;;;36.83;27.63;;;;;;;14.91;100.00;100065.56;5073440;28;20527;-74
2022/10/10 02:23:14;;;;;;;31.13;25.45;;;;;;;14.94;100.00;100067.91;5072346;28;20024;-75
2022/10/10 02:25:42;;;;;;;36.17;27.13;;;;;;;15.00;100.00;100072.59;5073502;28;20029;-73
2022/10/10 02:28:16;;;;;;;34.25;27.38;;;;;;;15.05;100.00;100070.28;5073656;28;20060;-74
2022/10/10 02:30:45;;;;;;;41.22;28.95;;;;;;;15.10;100.00;100069.81;5068192;28;20064;-75
2022/10/10 02:33:14;;;;;;;32.45;27.00;;;;;;;15.13;100.00;100070.34;5076004;28;20047;-75
2022/10/10 02:35:44;;;;;;;28.90;25.20;;;;;;;15.16;100.00;100066.50;5075089;28;20028;-75
2022/10/10 02:38:13;;;;;;;30.50;25.38;;;;;;;15.03;100.00;100068.78;5073735;28;20173;-74
2022/10/10 02:40:40;;;;;;;29.23;24.60;;;;;;;14.93;100.00;100063.59;5073162;28;20039;-74
2022/10/10 02:43:08;;;;;;;29.45;24.83;;;;;;;14.90;100.00;100061.25;5073917;28;20587;-75
2022/10/10 02:45:34;;;;;;;29.10;25.25;;;;;;;14.90;100.00;100063.91;5073294;28;20021;-75
2022/10/10 02:48:00;;;;;;;29.58;25.85;;;;;;;14.87;100.00;100066.88;5073494;28;20036;-75
2022/10/10 02:50:28;;;;;;;29.95;25.13;;;;;;;14.85;100.00;100063.53;5073566;28;20044;-75
2022/10/10 02:52:54;;;;;;;27.05;24.17;;;;;;;14.82;100.00;100071.84;5073875;28;20040;-75
2022/10/10 02:55:20;;;;;;;29.42;25.48;;;;;;;14.81;100.00;100064.84;5073460;28;20040;-76
2022/10/10 02:57:45;;;;;;;31.13;24.65;;;;;;;14.86;100.00;100062.53;5073633;28;20037;-75
2022/10/10 03:00:11;;;;;;;29.35;25.98;;;;;;;14.85;100.00;100060.88;5073409;28;20389;-75
2022/10/10 03:02:37;;;;;;;30.25;25.38;;;;;;;14.87;100.00;100064.22;5073009;28;20029;-74
2022/10/10 03:05:03;;;;;;;29.20;25.52;;;;;;;14.88;100.00;100062.41;5073266;28;20032;-75
2022/10/10 03:07:28;;;;;;;35.10;25.40;;;;;;;14.85;100.00;100066.19;5072917;28;20044;-74
2022/10/10 03:09:54;;;;;;;30.38;25.65;;;;;;;14.85;100.00;100066.19;5073319;28;20548;-74
2022/10/10 03:12:19;;;;;;;31.70;25.60;;;;;;;14.86;100.00;100064.38;5077318;28;20039;-76
2022/10/10 03:14:45;;;;;;;29.73;25.63;;;;;;;14.88;100.00;100059.75;5073504;28;20127;-75
2022/10/10 03:17:10;;;;;;;32.05;27.00;;;;;;;14.81;100.00;100059.53;5073001;28;20465;-76
2022/10/10 03:19:36;;;;;;;32.25;26.38;;;;;;;14.79;100.00;100061.50;5072890;28;20392;-77
2022/10/10 03:22:01;;;;;;;28.80;25.67;;;;;;;14.80;100.00;100073.81;5073235;28;20103;-75
2022/10/10 03:24:27;;;;;;;30.08;26.20;;;;;;;14.77;100.00;100063.50;5071705;28;20020;-75
2022/10/10 03:26:52;;;;;;;34.30;27.58;;;;;;;14.76;100.00;100067.16;5073220;28;20120;-78
2022/10/10 03:29:17;;;;;;;29.60;26.35;;;;;;;14.80;100.00;100065.84;5073151;28;20505;-76
2022/10/10 03:31:43;;;;;;;29.92;26.55;;;;;;;14.80;100.00;100067.66;5077905;28;20024;-76
2022/10/10 03:34:09;;;;;;;33.10;28.42;;;;;;;14.79;100.00;100066.81;5073055;28;20025;-78
2022/10/10 03:36:34;;;;;;;36.90;27.55;;;;;;;14.85;100.00;100065.34;5071397;28;20034;-75
2022/10/10 03:39:00;;;;;;;33.17;27.95;;;;;;;14.88;100.00;100073.88;5071335;28;20118;-75
2022/10/10 03:41:26;;;;;;;31.90;26.55;;;;;;;14.93;100.00;100074.22;5072626;28;20036;-76
2022/10/10 03:43:51;;;;;;;36.60;28.55;;;;;;;14.92;100.00;100071.72;5072973;28;20029;-75
2022/10/10 03:46:17;;;;;;;33.42;27.55;;;;;;;14.88;100.00;100076.53;5072606;28;20449;-74
2022/10/10 03:48:43;;;;;;;33.22;26.67;;;;;;;14.84;100.00;100075.19;5070301;28;20035;-75
2022/10/10 03:51:08;;;;;;;34.53;28.20;;;;;;;14.84;100.00;100075.19;5073022;28;20025;-75
2022/10/10 03:53:33;;;;;;;33.00;28.92;;;;;;;14.80;100.00;100072.97;5071535;28;20476;-75
2022/10/10 03:55:59;;;;;;;34.58;28.42;;;;;;;14.80;100.00;100073.81;5070743;28;20021;-73
2022/10/10 03:58:24;;;;;;;39.03;29.75;;;;;;;14.79;100.00;100077.44;5071559;28;20098;-74
2022/10/10 04:00:58;;;;;;;34.13;28.05;;;;;;;14.82;100.00;100074.50;5071992;28;20028;-74
2022/10/10 04:03:24;;;;;;;37.42;30.25;;;;;;;14.83;100.00;100076.16;5067596;28;20484;-75
2022/10/10 04:05:50;;;;;;;35.95;29.60;;;;;;;14.84;100.00;100080.50;5071749;28;20059;-75
2022/10/10 04:08:16;;;;;;;35.28;29.33;;;;;;;14.85;100.00;100076.81;5067446;28;20532;-75
2022/10/10 04:10:41;;;;;;;34.28;30.00;;;;;;;14.85;100.00;100071.50;5071540;28;20052;-75
2022/10/10 04:13:07;;;;;;;37.97;30.27;;;;;;;14.89;100.00;100077.34;5071749;28;20079;-74
2022/10/10 04:15:32;;;;;;;42.40;30.17;;;;;;;14.86;100.00;100078.50;5070781;28;20025;-75
2022/10/10 04:17:58;;;;;;;37.08;30.50;;;;;;;14.86;100.00;100082.97;5071040;28;20033;-75
2022/10/10 04:20:24;;;;;;;35.03;30.40;;;;;;;14.86;100.00;100083.81;5068451;28;20386;-75
2022/10/10 04:22:50;;;;;;;37.92;29.70;;;;;;;14.92;100.00;100074.38;5071210;28;20028;-75
2022/10/10 04:25:16;;;;;;;37.97;30.85;;;;;;;14.94;100.00;100081.19;5071372;28;20079;-75
2022/10/10 04:27:42;;;;;;;37.38;30.40;;;;;;;14.98;100.00;100077.22;5071035;28;20032;-76
2022/10/10 04:30:09;;;;;;;35.35;30.50;;;;;;;14.99;100.00;100078.91;5071320;28;20473;-75
2022/10/10 04:32:35;;;;;;;40.88;31.45;;;;;;;15.01;100.00;100073.44;5070853;28;20044;-77
2022/10/10 04:35:01;;;;;;;36.35;30.48;;;;;;;15.04;100.00;100071.28;5070738;28;20040;-77
2022/10/10 04:37:27;;;;;;;36.58;29.90;;;;;;;14.99;100.00;100073.59;5069482;28;20036;-77
2022/10/10 04:39:52;;;;;;;35.20;30.77;;;;;;;15.05;100.00;100067.63;5067030;28;20068;-77
2022/10/10 04:42:18;;;;;;;37.22;30.25;;;;;;;15.09;100.00;100068.97;5071230;28;20390;-78
2022/10/10 04:44:43;;;;;;;34.50;28.77;;;;;;;15.13;100.00;100075.66;5070881;28;20739;-76
2022/10/10 04:47:08;;;;;;;34.17;30.13;;;;;;;15.13;100.00;100065.03;5075214;28;20037;-80
2022/10/10 04:49:34;;;;;;;36.55;30.15;;;;;;;15.09;100.00;100074.28;5050633;28;20031;-83
2022/10/10 04:51:59;;;;;;;35.03;29.85;;;;;;;15.08;100.00;100067.31;5070920;28;20055;-83
2022/10/10 04:54:25;;;;;;;38.05;31.42;;;;;;;15.06;100.00;100068.47;5070698;28;20074;-85
2022/10/10 04:56:50;;;;;;;42.05;33.35;;;;;;;15.06;100.00;100077.28;5067515;28;20033;-84
2022/10/10 04:59:16;;;;;;;38.50;31.20;;;;;;;15.08;100.00;100067.31;5069801;28;20029;-84
2022/10/10 05:01:41;;;;;;;44.45;34.28;;;;;;;15.07;100.00;100073.63;5069049;28;20090;-84
2022/10/10 05:04:07;;;;;;;41.63;33.15;;;;;;;15.09;100.00;100076.94;5071049;28;20075;-83
2022/10/10 05:06:32;;;;;;;42.47;34.53;;;;;;;15.06;100.00;100074.63;5069946;28;20044;-82
2022/10/10 05:08:58;;;;;;;38.55;32.75;;;;;;;15.08;100.00;100077.94;5065304;28;20389;-82
2022/10/10 05:11:24;;;;;;;41.85;34.38;;;;;;;15.10;100.00;100075.97;5070478;28;20453;-82
2022/10/10 05:13:50;;;;;;;40.50;34.13;;;;;;;15.08;100.00;100077.09;5070294;28;20174;-82
2022/10/10 05:16:15;;;;;;;43.55;33.13;;;;;;;15.10;100.00;100075.13;5070659;28;20071;-77
2022/10/10 05:18:41;;;;;;;37.10;32.65;;;;;;;15.07;100.00;100076.28;5070316;28;20043;-78
2022/10/10 05:21:09;;;;;;;41.08;33.75;;;;;;;15.09;100.00;100084.94;5069247;28;20025;-78
2022/10/10 05:23:35;;;;;;;37.25;31.15;;;;;;;15.07;100.00;100086.94;5074215;28;20017;-78
2022/10/10 05:26:01;;;;;;;43.40;31.65;;;;;;;15.07;100.00;100086.94;5065142;28;20326;-80
2022/10/10 05:28:26;;;;;;;34.42;30.38;;;;;;;15.09;100.00;100084.94;5044070;28;20523;-81
2022/10/10 05:30:52;;;;;;;41.97;31.80;;;;;;;15.12;100.00;100084.63;5070167;28;20029;-80
2022/10/10 05:33:18;;;;;;;43.80;33.70;;;;;;;15.14;100.00;100081.78;5071785;28;20086;-81
2022/10/10 05:35:43;;;;;;;36.15;31.63;;;;;;;15.12;100.00;100089.94;5071279;28;20067;-80
2022/10/10 05:38:09;;;;;;;40.97;31.88;;;;;;;15.12;100.00;100084.63;5071073;28;20037;-77
2022/10/10 05:40:38;;;;;;;35.70;31.17;;;;;;;15.12;100.00;100079.31;5071813;28;20449;-77
2022/10/10 05:43:04;;;;;;;37.53;31.35;;;;;;;15.09;100.00;100089.41;5071690;28;20359;-77
2022/10/10 05:45:29;;;;;;;37.97;31.52;;;;;;;15.09;100.00;100090.25;5069259;28;20024;-78
2022/10/10 05:47:54;;;;;;;37.38;31.88;;;;;;;15.12;100.00;100100.56;5070656;28;20089;-78
2022/10/10 05:50:33;;;;;;;39.08;31.20;;;;;;;15.12;100.00;100097.91;5069085;28;20048;-76
2022/10/10 05:52:59;;;;;;;39.22;31.58;;;;;;;15.08;100.00;100099.19;5066000;28;20226;-77
2022/10/10 05:55:25;;;;;;;37.58;29.65;;;;;;;15.09;100.00;100100.88;5069958;28;20123;-75
2022/10/10 05:57:51;;;;;;;35.78;31.20;;;;;;;15.10;100.00;100102.53;5070411;28;20081;-76
2022/10/10 06:00:17;;;;;;;36.65;31.00;;;;;;;15.13;100.00;100112.88;5074099;28;20037;-82
2022/10/10 06:02:43;;;;;;;36.30;29.88;;;;;;;15.10;100.00;100102.53;5068316;28;20039;-76
2022/10/10 06:05:08;;;;;;;35.20;30.05;;;;;;;15.08;100.00;100109.84;5070156;28;20049;-76
2022/10/10 06:07:34;;;;;;;34.40;30.00;;;;;;;14.99;100.00;100113.44;5069613;28;20036;-74
2022/10/10 06:09:59;;;;;;;35.35;30.55;;;;;;;15.01;100.00;100114.13;5069141;28;20034;-75
2022/10/10 06:12:25;;;;;;;38.10;30.23;;;;;;;15.00;100.00;100117.78;5068739;28;20064;-75
2022/10/10 06:14:50;;;;;;;40.90;32.15;;;;;;;15.04;100.00;100119.13;5069452;28;20059;-74
2022/10/10 06:17:16;;;;;;;35.63;29.90;;;;;;;15.00;100.00;100120.44;5069312;28;20115;-75
2022/10/10 06:19:41;;;;;;;33.88;30.23;;;;;;;15.00;100.00;100128.41;5073508;28;20028;-75
2022/10/10 06:22:07;;;;;;;38.33;30.13;;;;;;;15.00;100.00;100133.72;5069582;28;20033;-76
2022/10/10 06:24:32;;;;;;;34.80;27.60;;;;;;;14.98;100.00;100134.84;5068963;28;20132;-76
2022/10/10 06:26:58;;;;;;;32.15;28.45;;;;;;;14.97;100.00;100144.66;5069300;28;20035;-75
2022/10/10 06:29:23;;;;;;;30.70;26.33;;;;;;;14.96;100.00;100142.97;5069170;28;20031;-76
2022/10/10 06:31:49;;;;;;;32.67;26.48;;;;;;;14.91;100.00;100145.28;5067988;28;20037;-77
2022/10/10 06:34:14;;;;;;;31.83;26.50;;;;;;;14.92;100.00;100149.59;5069763;28;20056;-76
2022/10/10 06:36:39;;;;;;;29.08;25.73;;;;;;;14.93;100.00;100153.94;5067936;28;20064;-76
2022/10/10 06:39:05;;;;;;;30.63;26.13;;;;;;;14.89;100.00;100157.91;5071943;28;20121;-75
2022/10/10 06:41:30;;;;;;;30.70;25.45;;;;;;;14.86;100.00;100166.16;5072322;28;20111;-76
2022/10/10 06:43:56;;;;;;;30.67;24.15;;;;;;;14.84;100.00;100157.53;5073053;28;20104;-76
2022/10/10 06:46:21;;;;;;;28.70;23.30;;;;;;;14.86;100.00;100158.19;5072286;28;20480;-75
2022/10/10 06:48:47;;;;;;;29.17;23.10;;;;;;;14.83;100.00;100163.84;5072908;28;20501;-76
2022/10/10 06:51:15;;;;;;;26.77;23.15;;;;;;;14.81;100.00;100165.81;5073018;28;20036;-77
2022/10/10 06:53:41;;;;;;;26.30;23.60;;;;;;;14.80;100.00;100164.13;5068746;28;20127;-76
2022/10/10 06:56:08;;;;;;;26.80;21.83;;;;;;;14.82;100.00;100170.13;5071446;28;20044;-76
2022/10/10 06:58:34;;;;;;;26.58;22.65;;;;;;;14.81;100.00;100176.44;5076193;28;20418;-73
2022/10/10 07:01:01;;;;;;;23.30;20.75;;;;;;;14.73;100.00;100176.34;5072141;28;20108;-76
2022/10/10 07:03:28;;;;;;;23.92;21.45;;;;;;;14.73;100.00;100184.31;5071980;28;20032;-77
2022/10/10 07:05:56;;;;;;;23.45;20.45;;;;;;;14.75;100.00;100177.88;5070362;28;20531;-74
2022/10/10 07:08:22;;;;;;;24.50;21.90;;;;;;;14.75;100.00;100174.41;5070677;28;20534;-77
2022/10/10 07:10:48;;;;;;;29.02;22.50;;;;;;;14.76;100.00;100184.03;5072313;28;20040;-75
2022/10/10 07:13:14;;;;;;;23.67;21.23;;;;;;;14.84;100.00;100194.75;5072073;28;20029;-75
2022/10/10 07:15:39;;;;;;;22.95;20.63;;;;;;;14.84;100.00;100186.78;5074375;28;20070;-74
2022/10/10 07:18:06;;;;;;;23.52;20.48;;;;;;;14.81;100.00;100184.41;5075563;28;20435;-78
2022/10/10 07:20:33;;;;;;;23.17;19.48;;;;;;;14.78;100.00;100187.38;5072647;28;20021;-75
2022/10/10 07:22:59;;;;;;;22.23;19.55;;;;;;;14.74;100.00;100186.84;5072546;28;20032;-75
2022/10/10 07:25:25;;;;;;;22.73;18.58;;;;;;;14.80;100.00;100196.00;5071659;28;20036;-75
2022/10/10 07:27:50;;;;;;;22.55;17.15;;;;;;;14.76;100.00;100194.66;5072093;28;20033;-77
2022/10/10 07:30:16;;;;;;;20.38;18.23;;;;;;;14.77;100.00;100192.84;5071104;28;20037;-76
2022/10/10 07:32:42;;;;;;;20.80;18.60;;;;;;;14.79;100.00;100199.66;5071592;28;20064;-77
2022/10/10 07:35:08;;;;;;;18.33;14.93;;;;;;;14.73;100.00;100203.75;5071114;28;20060;-76
2022/10/10 07:37:34;;;;;;;18.63;15.70;;;;;;;14.73;100.00;100200.28;5071937;28;20387;-78
2022/10/10 07:39:59;;;;;;;18.80;14.88;;;;;;;14.74;100.00;100207.25;5072225;28;20107;-76
2022/10/10 07:42:24;;;;;;;15.88;13.85;;;;;;;14.75;100.00;100209.78;5071855;28;20036;-76
2022/10/10 07:44:50;;;;;;;16.02;14.35;;;;;;;14.84;100.00;100218.66;5071419;28;20025;-75
2022/10/10 07:47:15;;;;;;;14.82;13.40;;;;;;;14.85;100.00;100214.16;5070952;28;20045;-75
2022/10/10 07:49:42;;;;;;;13.35;12.13;;;;;;;14.75;100.00;100222.22;5070525;28;20119;-75
2022/10/10 07:52:08;;;;;;;13.80;12.45;;;;;;;14.79;100.00;100226.22;5070914;28;20028;-76
2022/10/10 07:54:33;;;;;;;13.98;12.73;;;;;;;14.82;100.00;100219.78;5074055;28;20036;-75
2022/10/10 07:56:58;;;;;;;14.05;12.52;;;;;;;14.83;100.00;100224.94;5071664;28;20052;-76
2022/10/10 07:59:24;;;;;;;12.88;11.25;;;;;;;14.80;100.00;100221.75;5070852;28;20071;-76
2022/10/10 08:01:50;;;;;;;12.18;10.90;;;;;;;14.83;100.00;100232.91;5069967;28;20116;-76
2022/10/10 08:04:16;;;;;;;11.35;10.35;;;;;;;14.82;100.00;100233.91;5071307;28;20527;-76
2022/10/10 08:06:42;;;;;;;11.10;9.77;;;;;;;14.82;100.00;100236.56;5071200;28;20037;-76
2022/10/10 08:09:08;;;;;;;11.10;9.55;;;;;;;14.80;100.00;100238.53;5071250;28;20029;-75
2022/10/10 08:11:33;;;;;;;10.20;9.30;;;;;;;14.78;100.00;100240.53;5071294;28;20028;-76
2022/10/10 08:13:58;;;;;;;10.93;10.02;;;;;;;14.68;100.00;100239.75;5073660;28;20083;-76
2022/10/10 08:16:24;;;;;;;10.98;9.85;;;;;;;14.74;100.00;100244.44;5070784;28;20032;-76
2022/10/10 08:18:50;;;;;;;11.00;10.00;;;;;;;14.72;100.00;100239.31;5070742;28;20036;-76
2022/10/10 08:21:16;;;;;;;10.98;9.93;;;;;;;14.67;100.00;100240.72;5071257;28;20052;-76
2022/10/10 08:23:42;;;;;;;10.75;9.63;;;;;;;14.70;100.00;100245.75;5070668;28;20029;-76
2022/10/10 08:26:10;;;;;;;10.70;9.70;;;;;;;14.65;100.00;100245.38;5071403;28;20483;-76
2022/10/10 08:28:37;;;;;;;11.35;10.25;;;;;;;14.59;100.00;100244.16;5070228;28;20032;-77
2022/10/10 08:31:15;;;;;;;10.35;9.40;;;;;;;14.65;100.00;100234.75;5064975;28;20048;-75
2022/10/10 08:33:42;;;;;;;11.63;9.50;;;;;;;14.65;100.00;100245.38;5074465;28;20044;-77
2022/10/10 08:36:12;;;;;;;9.98;8.88;;;;;;;14.57;100.00;100242.63;5071087;28;20082;-77
2022/10/10 08:38:38;;;;;;;;;;;;;;;14.59;100.00;100251.28;5070934;28;20079;-77
2022/10/10 08:41:16;;;;;;;9.23;8.38;;;;;;;14.56;100.00;100252.41;5070639;28;20044;-76
2022/10/10 08:43:53;;;;;;;9.25;8.35;;;;;;;14.60;100.00;100252.97;5070470;28;20032;-76
2022/10/10 08:46:33;;;;;;;10.32;9.43;;;;;;;14.66;100.00;100247.88;5069912;28;20326;-76
2022/10/10 08:49:10;;;;;;;12.65;8.43;;;;;;;14.70;100.00;100248.41;5065747;28;20032;-77
2022/10/10 08:51:39;;;;;;;12.27;9.10;;;;;;;14.73;100.00;100258.72;5070668;28;20068;-77
2022/10/10 08:54:08;;;;;;;9.40;8.27;;;;;;;14.74;100.00;100263.03;5070548;28;20035;-76
2022/10/10 08:56:34;;;;;;;9.13;7.93;;;;;;;14.72;100.00;100267.69;5070270;28;20025;-77
2022/10/10 08:59:09;;;;;;;9.57;8.73;;;;;;;14.78;100.00;100267.09;5070631;28;20029;-76
2022/10/10 09:01:37;;;;;;;8.80;8.07;;;;;;;14.67;100.00;100267.28;5069476;28;20714;-76
2022/10/10 09:04:05;;;;;;;9.52;8.57;;;;;;;14.69;100.00;100262.66;5069856;28;20150;-75
2022/10/10 09:06:54;;;;;;;12.35;8.65;;;;;;;14.75;100.00;100262.06;5068619;28;20049;-73
2022/10/10 09:09:28;;;;;;;11.63;9.50;;;;;;;14.70;100.00;100265.19;5069819;28;20032;-74
2022/10/10 09:12:27;;;;;;;9.13;8.20;;;;;;;14.61;100.00;100265.25;5071261;28;20560;-74
2022/10/10 09:15:14;;;;;;;9.02;8.23;;;;;;;14.58;100.00;100265.56;5070571;28;20115;-77
2022/10/10 09:17:51;;;;;;;8.50;7.70;;;;;;;14.58;100.00;100270.88;5067895;28;20073;-77
2022/10/10 09:20:32;;;;;;;10.32;8.50;;;;;;;14.54;100.00;100274.81;5069538;28;20445;-76
2022/10/10 09:23:16;;;;;;;;;;;;;;;14.57;100.00;100270.03;5066503;28;20028;-74
2022/10/10 09:26:06;;;;;;;9.10;8.20;;;;;;;14.68;100.00;100271.63;5070120;28;20343;-74
2022/10/10 09:28:54;;;;;;;10.20;9.20;;;;;;;14.69;100.00;100278.63;5053092;28;20392;-74
2022/10/10 09:31:39;;;;;;;8.98;7.97;;;;;;;14.63;100.00;100271.25;5067634;28;20035;-74
2022/10/10 09:34:18;;;;;;;10.40;8.95;;;;;;;14.80;100.00;100286.34;5066800;28;20052;-74
2022/10/10 09:36:46;;;;;;;9.00;8.05;;;;;;;14.79;100.00;100287.34;5069850;28;20033;-77
2022/10/10 09:39:20;;;;;;;9.38;8.48;;;;;;;14.82;100.00;100280.91;5069409;28;20052;-74
2022/10/10 09:41:56;;;;;;;9.07;8.18;;;;;;;14.87;100.00;100281.25;5069583;28;20033;-76
2022/10/10 09:44:22;;;;;;;9.27;8.40;;;;;;;14.81;100.00;100281.88;5069240;28;20054;-75
2022/10/10 09:46:48;;;;;;;9.02;8.05;;;;;;;14.81;100.00;100277.41;5069929;28;20033;-77
2022/10/10 09:49:15;;;;;;;9.90;8.60;;;;;;;14.92;100.00;100279.81;5073157;28;20090;-77
2022/10/10 09:51:42;;;;;;;10.05;9.00;;;;;;;14.87;100.00;100281.25;5067835;28;20459;-77
2022/10/10 09:54:08;;;;;;;10.07;9.20;;;;;;;14.90;100.00;100287.13;5067969;28;20029;-75
2022/10/10 09:56:52;;;;;;;9.98;9.13;;;;;;;14.94;100.00;100285.00;5069159;28;20400;-76
2022/10/10 09:59:43;;;;;;;9.65;8.80;;;;;;;15.02;100.00;100285.88;5069335;28;20037;-78
2022/10/10 10:02:23;;;;;;;9.70;8.80;;;;;;;14.91;100.00;100293.25;5067674;28;20082;-75
2022/10/10 10:04:49;;;;;;;9.80;8.80;;;;;;;14.86;100.00;100285.75;5068717;28;20068;-74
2022/10/10 10:07:27;;;;;;;11.10;10.00;;;;;;;14.96;100.00;100286.50;5069860;28;20051;-77
2022/10/10 10:09:56;;;;;;;10.50;9.50;;;;;;;15.04;100.00;100288.38;5069297;28;20112;-76
2022/10/10 10:12:26;;;;;;;11.07;9.98;;;;;;;15.10;100.00;100283.28;5068740;28;20035;-75
2022/10/10 10:14:59;;;;;;;14.10;9.95;;;;;;;15.24;100.00;100284.56;5070864;28;20107;-77
2022/10/10 10:17:24;;;;;;;10.43;9.23;;;;;;;15.29;100.00;100286.75;5072399;28;20154;-77
2022/10/10 10:19:50;;;;;;;11.13;8.90;;;;;;;15.33;100.00;100290.78;5071357;28;20502;-77
2022/10/10 10:22:34;;;;;;;10.02;9.00;;;;;;;15.23;100.00;100298.84;5072608;28;20036;-79
2022/10/10 10:25:28;;;;;;;10.25;9.25;;;;;;;15.19;100.00;100302.81;5068676;28;20029;-76
2022/10/10 10:28:14;;;;;;;9.85;8.82;;;;;;;15.27;100.00;100300.19;5069114;28;20036;-79
2022/10/10 10:30:41;;;;;;;10.07;9.20;;;;;;;15.34;100.00;100300.41;5070724;28;20040;-81
2022/10/10 10:33:16;;;;;;;11.85;9.00;;;;;;;15.37;100.00;100305.44;5072517;28;20431;-76
2022/10/10 10:36:15;;;;;;;10.70;8.50;;;;;;;15.42;100.00;100305.81;5072036;28;20036;-77
2022/10/10 10:39:08;;;;;;;10.38;9.38;;;;;;;15.47;100.00;100300.84;5070711;28;20033;-77
2022/10/10 10:41:51;;;;;;;9.27;8.35;;;;;;;15.49;100.00;100298.88;5071449;28;20439;-76
2022/10/10 10:44:43;;;;;;;10.18;9.10;;;;;;;15.49;100.00;100299.69;5071227;28;20089;-77
2022/10/10 10:47:20;;;;;;;10.30;8.80;;;;;;;15.40;100.00;100302.47;5070296;28;20040;-77
2022/10/10 10:50:19;;;;;;;9.73;8.57;;;;;;;15.36;100.00;100299.28;5071006;28;20674;-77
2022/10/10 10:52:55;;;;;;;11.82;9.48;;;;;;;15.36;100.00;100303.78;5071183;28;20055;-77
2022/10/10 10:55:27;;;;;;;12.07;9.85;;;;;;;15.29;100.00;100302.72;5072393;28;20043;-77
2022/10/10 10:58:21;;;;;;;13.20;9.93;;;;;;;15.26;100.00;100297.69;5072905;28;20090;-77
2022/10/10 11:01:09;;;;;;;11.55;9.48;;;;;;;15.24;100.00;100305.00;5053332;28;20044;-76
2022/10/10 11:03:50;;;;;;;11.55;10.13;;;;;;;15.24;100.00;100299.69;5070834;28;20086;-77
2022/10/10 11:06:36;;;;;;;11.32;9.85;;;;;;;15.25;100.00;100301.38;5073261;28;20128;-77
2022/10/10 11:09:14;;;;;;;10.80;9.85;;;;;;;15.27;100.00;100304.69;5069545;28;20039;-76
2022/10/10 11:11:58;;;;;;;13.23;9.52;;;;;;;15.32;100.00;100305.06;5070723;28;20514;-77
2022/10/10 11:14:51;;;;;;;10.35;9.30;;;;;;;15.29;100.00;100302.72;5068608;28;20036;-75
2022/10/10 11:17:33;;;;;;;10.80;9.27;;;;;;;15.25;100.00;100296.03;5071656;28;20124;-76